Time;durP1;ratioP1;P1;durP2;ratioP2;P2;SDS_P1;SDS_P2;PMS_P1;PMS_P2;Temp;Humidity;BMP_temperature;BMP_pressure;BME280_temperature;BME280_humidity;BME280_pressure;Samples;Min_cycle;Max_cycle;Signal;HPM_P1;HPM_P2
2022/04/16 00:01:45;;;;;;;;;;;9.00;99.90;;;;;;5202922;28;19915;-73
2022/04/16 00:04:19;;;;;;;;;;;9.00;99.90;;;;;;5211739;28;19916;-74
2022/04/16 00:06:56;;;;;;;;;;;9.10;99.90;;;;;;5221451;28;19911;-75
2022/04/16 00:09:28;;;;;;;;;;;9.10;99.90;;;;;;5210545;28;19919;-74
2022/04/16 00:12:05;;;;;;;;;;;9.10;99.90;;;;;;5187491;28;19912;-75
2022/04/16 00:14:41;;;;;;;;;;;9.20;99.90;;;;;;5221295;28;19917;-73
2022/04/16 00:17:15;;;;;;;;;;;9.20;99.90;;;;;;5200147;28;20254;-74
2022/04/16 00:19:48;;;;;;;;;;;9.20;99.90;;;;;;5201441;28;19912;-73
2022/04/16 00:22:23;;;;;;;;;;;9.20;99.90;;;;;;5199274;28;19912;-75
2022/04/16 00:24:54;;;;;;;;;;;9.20;99.90;;;;;;5184185;28;19923;-73
2022/04/16 00:27:25;;;;;;;;;;;9.20;99.90;;;;;;5215853;28;19912;-74
2022/04/16 00:29:57;;;;;;;;;;;9.20;99.90;;;;;;5183345;28;20110;-73
2022/04/16 00:32:28;;;;;;;;;;;9.10;99.90;;;;;;5212640;28;19901;-74
2022/04/16 00:35:02;;;;;;;;;;;9.10;99.90;;;;;;5221586;28;19905;-75
2022/04/16 00:37:36;;;;;;;;;;;9.10;99.90;;;;;;5187452;28;20114;-75
2022/04/16 00:40:10;;;;;;;;;;;9.10;99.90;;;;;;5182570;28;19939;-73
2022/04/16 00:42:45;;;;;;;;;;;9.10;99.90;;;;;;5182492;28;19923;-74
2022/04/16 00:45:28;;;;;;;;;;;9.10;99.90;;;;;;5182827;28;19904;-75
2022/04/16 00:48:04;;;;;;;;;;;9.10;99.90;;;;;;5198463;28;19905;-75
2022/04/16 00:50:37;;;;;;;;;;;9.10;99.90;;;;;;5193338;28;19923;-76
2022/04/16 00:53:12;;;;;;;;;;;9.10;99.90;;;;;;5182068;28;19917;-74
2022/04/16 00:55:43;;;;;;;;;;;9.20;99.90;;;;;;5182985;28;19909;-74
2022/04/16 00:58:19;;;;;;;;;;;9.20;99.90;;;;;;5200688;28;19917;-75
2022/04/16 01:00:53;;;;;;;;;;;9.20;99.90;;;;;;5226711;28;20356;-74
2022/04/16 01:03:27;;;;;;;;;;;9.20;99.90;;;;;;5220554;28;19922;-74
2022/04/16 01:06:01;;;;;;;;;;;9.20;99.90;;;;;;5211734;28;20130;-74
2022/04/16 01:08:34;;;;;;;;;;;9.20;99.90;;;;;;5200733;28;19909;-75
2022/04/16 01:11:06;;;;;;;;;;;9.30;99.90;;;;;;5200159;28;19904;-74
2022/04/16 01:13:39;;;;;;;;;;;9.30;99.90;;;;;;5199678;28;19909;-75
2022/04/16 01:16:13;;;;;;;;;;;9.30;99.90;;;;;;5174519;28;19920;-74
2022/04/16 01:18:50;;;;;;;;;;;9.30;99.90;;;;;;5219285;28;19976;-73
2022/04/16 01:21:24;;;;;;;;;;;9.30;99.90;;;;;;5219259;28;20133;-74
2022/04/16 01:23:58;;;;;;;;;;;9.30;99.90;;;;;;5219077;28;19921;-74
2022/04/16 01:26:30;;;;;;;;;;;9.30;99.90;;;;;;5220843;28;19913;-74
2022/04/16 01:29:06;;;;;;;;;;;9.30;99.90;;;;;;5219295;28;19908;-75
2022/04/16 01:31:39;;;;;;;;;;;9.30;99.90;;;;;;5220370;28;19913;-74
2022/04/16 01:34:17;;;;;;;;;;;9.30;99.90;;;;;;5235526;28;19904;-74
2022/04/16 01:36:48;;;;;;;;;;;9.30;99.90;;;;;;5201337;28;19905;-73
2022/04/16 01:39:27;;;;;;;;;;;9.30;99.90;;;;;;5220583;28;20220;-75
2022/04/16 01:41:58;;;;;;;;;;;9.20;99.90;;;;;;5220983;28;19912;-74
2022/04/16 01:44:30;;;;;;;;;;;9.30;99.90;;;;;;5219543;28;20210;-74
2022/04/16 01:47:04;;;;;;;;;;;9.30;99.90;;;;;;5221015;28;19905;-75
2022/04/16 01:49:37;;;;;;;;;;;9.30;99.90;;;;;;5236742;28;19938;-73
2022/04/16 01:52:12;;;;;;;;;;;9.30;99.90;;;;;;5207806;28;19905;-75
2022/04/16 01:54:45;;;;;;;;;;;9.30;99.90;;;;;;5205601;28;20107;-75
2022/04/16 01:57:18;;;;;;;;;;;9.30;99.90;;;;;;5204643;28;19904;-75
2022/04/16 01:59:49;;;;;;;;;;;9.30;99.90;;;;;;5219885;28;20210;-74
2022/04/16 02:02:21;;;;;;;;;;;9.30;99.90;;;;;;5203254;28;19905;-73
2022/04/16 02:04:53;;;;;;;;;;;9.30;99.90;;;;;;5218426;28;19927;-74
2022/04/16 02:07:24;;;;;;;;;;;9.30;99.90;;;;;;5230927;28;19939;-74
2022/04/16 02:09:58;;;;;;;;;;;9.30;99.90;;;;;;5220553;28;19909;-75
2022/04/16 02:12:29;;;;;;;;;;;9.30;99.90;;;;;;5220605;28;19911;-74
2022/04/16 02:15:02;;;;;;;;;;;9.30;99.90;;;;;;5224216;28;20218;-75
2022/04/16 02:17:36;;;;;;;;;;;9.30;99.90;;;;;;5207340;28;20693;-74
2022/04/16 02:20:09;;;;;;;;;;;9.30;99.90;;;;;;5205920;28;20124;-74
2022/04/16 02:22:52;;;;;;;;;;;9.30;99.90;;;;;;5201248;28;19919;-75
2022/04/16 02:25:28;;;;;;;;;;;9.30;99.90;;;;;;5210219;28;19917;-74
2022/04/16 02:28:02;;;;;;;;;;;9.30;99.90;;;;;;5259905;28;19904;-74
2022/04/16 02:30:37;;;;;;;;;;;9.30;99.90;;;;;;5210077;28;20217;-74
2022/04/16 02:33:12;;;;;;;;;;;9.30;99.90;;;;;;5205093;28;19912;-73
2022/04/16 02:35:46;;;;;;;;;;;9.30;99.90;;;;;;5190477;28;19954;-73
2022/04/16 02:38:20;;;;;;;;;;;9.30;99.90;;;;;;5225336;28;19923;-75
2022/04/16 02:40:53;;;;;;;;;;;9.30;99.90;;;;;;5245079;28;20155;-73
2022/04/16 02:43:25;;;;;;;;;;;9.30;99.90;;;;;;5226754;28;20254;-75
2022/04/16 02:48:50;;;;;;;;;;;9.30;99.90;;;;;;5244123;28;19912;-74
2022/04/16 02:51:21;;;;;;;;;;;9.20;99.90;;;;;;5236403;28;19905;-75
2022/04/16 02:53:53;;;;;;;;;;;9.20;99.90;;;;;;5221508;28;20070;-74
2022/04/16 02:56:25;;;;;;;;;;;9.20;99.90;;;;;;5236020;28;19918;-74
2022/04/16 02:58:59;;;;;;;;;;;9.20;99.90;;;;;;5226156;28;19916;-75
2022/04/16 03:01:33;;;;;;;;;;;9.20;99.90;;;;;;5226387;28;19934;-74
2022/04/16 03:04:08;;;;;;;;;;;9.30;99.90;;;;;;5190165;28;20214;-75
2022/04/16 03:06:39;;;;;;;;;;;9.20;99.90;;;;;;5195433;28;19917;-74
2022/04/16 03:09:11;;;;;;;;;;;9.20;99.90;;;;;;5223874;28;19911;-73
2022/04/16 03:11:44;;;;;;;;;;;9.20;99.90;;;;;;5223685;28;19912;-75
2022/04/16 03:20:04;;;;;;;;;;;9.20;99.90;;;;;;5223066;28;19911;-73
2022/04/16 03:22:37;;;;;;;;;;;9.20;99.90;;;;;;5205664;28;19919;-74
2022/04/16 03:25:11;;;;;;;;;;;9.20;99.90;;;;;;5210427;28;20246;-73
2022/04/16 03:27:47;;;;;;;;;;;9.10;99.90;;;;;;5188703;28;19918;-75
2022/04/16 03:30:23;;;;;;;;;;;9.10;99.90;;;;;;5212627;28;19914;-74
2022/04/16 03:32:54;;;;;;;;;;;9.20;99.90;;;;;;5206335;28;19905;-73
2022/04/16 03:35:28;;;;;;;;;;;9.10;99.90;;;;;;5185501;28;19939;-74
2022/04/16 03:38:00;;;;;;;;;;;9.10;99.90;;;;;;5202562;28;20150;-73
2022/04/16 03:40:31;;;;;;;;;;;9.10;99.90;;;;;;5185149;28;20367;-74
2022/04/16 03:43:04;;;;;;;;;;;9.10;99.90;;;;;;5202515;28;19913;-73
2022/04/16 03:45:39;;;;;;;;;;;9.00;99.90;;;;;;5202349;28;19917;-75
2022/04/16 03:48:15;;;;;;;;;;;9.10;99.90;;;;;;5201839;28;19913;-73
2022/04/16 03:50:49;;;;;;;;;;;9.10;99.90;;;;;;5201402;28;19908;-75
2022/04/16 03:53:22;;;;;;;;;;;9.10;99.90;;;;;;5203097;28;19905;-74
2022/04/16 04:01:39;;;;;;;;;;;9.10;99.90;;;;;;5205929;28;19904;-74
2022/04/16 04:04:10;;;;;;;;;;;9.10;99.90;;;;;;5201474;28;19928;-73
2022/04/16 04:06:42;;;;;;;;;;;9.10;99.90;;;;;;5200890;28;19917;-73
2022/04/16 04:09:16;;;;;;;;;;;9.10;99.90;;;;;;5202105;28;20298;-74
2022/04/16 04:11:50;;;;;;;;;;;9.10;99.90;;;;;;5202571;28;20382;-73
2022/04/16 04:14:26;;;;;;;;;;;9.10;99.90;;;;;;5202474;28;19919;-74
2022/04/16 04:17:02;;;;;;;;;;;9.10;99.90;;;;;;5221292;28;19943;-74
2022/04/16 04:19:37;;;;;;;;;;;9.00;99.90;;;;;;5222784;28;20222;-74
2022/04/16 04:22:15;;;;;;;;;;;9.00;99.90;;;;;;5190981;28;19918;-73
2022/04/16 04:24:51;;;;;;;;;;;9.00;99.90;;;;;;5194407;28;19927;-74
2022/04/16 04:27:22;;;;;;;;;;;9.00;99.90;;;;;;5225926;28;19911;-73
2022/04/16 04:30:01;;;;;;;;;;;9.00;99.90;;;;;;5206681;28;20095;-73
2022/04/16 04:32:38;;;;;;;;;;;9.00;99.90;;;;;;5208129;28;19904;-74
2022/04/16 04:35:12;;;;;;;;;;;9.00;99.90;;;;;;5222916;28;19919;-75
2022/04/16 04:37:45;;;;;;;;;;;9.00;99.90;;;;;;5222241;28;20078;-74
2022/04/16 04:40:17;;;;;;;;;;;9.00;99.90;;;;;;5222271;28;19916;-74
2022/04/16 04:42:48;;;;;;;;;;;9.00;99.90;;;;;;5226188;28;19903;-74
2022/04/16 04:45:21;;;;;;;;;;;9.00;99.90;;;;;;5208758;28;19916;-73
2022/04/16 04:47:53;;;;;;;;;;;8.90;99.90;;;;;;5222729;28;19912;-74
2022/04/16 04:50:24;;;;;;;;;;;9.00;99.90;;;;;;5237634;28;20185;-74
2022/04/16 04:52:58;;;;;;;;;;;9.00;99.90;;;;;;5237005;28;19916;-74
2022/04/16 04:55:29;;;;;;;;;;;9.00;99.90;;;;;;5223146;28;20105;-74
2022/04/16 04:58:00;;;;;;;;;;;9.00;99.90;;;;;;5221529;28;19919;-73
2022/04/16 05:00:34;;;;;;;;;;;9.00;99.90;;;;;;5222335;28;20267;-74
2022/04/16 05:03:05;;;;;;;;;;;9.00;99.90;;;;;;5222323;28;19912;-73
2022/04/16 05:05:36;;;;;;;;;;;8.90;99.90;;;;;;5205578;28;20126;-74
2022/04/16 05:08:08;;;;;;;;;;;8.90;99.90;;;;;;5225861;28;19901;-73
2022/04/16 05:10:39;;;;;;;;;;;8.90;99.90;;;;;;5221668;28;19905;-74
2022/04/16 05:13:10;;;;;;;;;;;8.90;99.90;;;;;;5220231;28;20233;-74
2022/04/16 05:15:47;;;;;;;;;;;8.90;99.90;;;;;;5203222;28;19915;-74
2022/04/16 05:18:21;;;;;;;;;;;8.90;99.90;;;;;;5202758;28;19935;-74
2022/04/16 05:20:55;;;;;;;;;;;8.90;99.90;;;;;;5221411;28;19904;-74
2022/04/16 05:23:32;;;;;;;;;;;8.90;99.90;;;;;;5221104;28;19913;-73
2022/04/16 05:26:06;;;;;;;;;;;8.80;99.90;;;;;;5219002;28;20046;-74
2022/04/16 05:28:38;;;;;;;;;;;8.80;99.90;;;;;;5187120;28;19913;-74
2022/04/16 05:31:15;;;;;;;;;;;8.80;99.90;;;;;;5221680;28;19905;-73
2022/04/16 05:36:37;;;;;;;;;;;8.80;99.90;;;;;;5206507;28;19909;-74
2022/04/16 05:39:11;;;;;;;;;;;8.80;99.90;;;;;;5220909;28;19913;-72
2022/04/16 05:41:42;;;;;;;;;;;8.80;99.90;;;;;;5203970;28;20010;-73
2022/04/16 05:44:13;;;;;;;;;;;8.80;99.90;;;;;;5221115;28;19916;-74
2022/04/16 05:46:47;;;;;;;;;;;8.70;99.90;;;;;;5221141;28;19904;-72
2022/04/16 05:49:20;;;;;;;;;;;8.70;99.90;;;;;;5220807;28;20208;-74
2022/04/16 05:51:52;;;;;;;;;;;8.70;99.90;;;;;;5221299;28;19910;-75
2022/04/16 05:54:29;;;;;;;;;;;8.70;99.90;;;;;;5219779;28;19913;-74
2022/04/16 05:57:01;;;;;;;;;;;8.70;99.90;;;;;;5246280;28;19913;-74
2022/04/16 05:59:32;;;;;;;;;;;8.60;99.90;;;;;;5221278;28;19912;-73
2022/04/16 06:02:09;;;;;;;;;;;8.70;99.90;;;;;;5202406;28;19909;-74
2022/04/16 06:04:44;;;;;;;;;;;8.70;99.90;;;;;;5214717;28;19942;-74
2022/04/16 06:07:17;;;;;;;;;;;8.70;99.90;;;;;;5215415;28;19943;-75
2022/04/16 06:09:48;;;;;;;;;;;8.70;99.90;;;;;;5239458;28;20139;-74
2022/04/16 06:12:19;;;;;;;;;;;8.70;99.90;;;;;;5220641;28;19912;-74
2022/04/16 06:14:56;;;;;;;;;;;8.70;99.90;;;;;;5217891;28;19919;-75
2022/04/16 06:17:34;;;;;;;;;;;8.70;99.90;;;;;;5216752;28;19912;-74
2022/04/16 06:20:07;;;;;;;;;;;8.70;99.90;;;;;;5220887;28;19912;-74
2022/04/16 06:22:39;;;;;;;;;;;8.70;99.90;;;;;;5185513;28;19917;-74
2022/04/16 06:25:14;;;;;;;;;;;8.80;99.90;;;;;;5203094;28;20270;-73
2022/04/16 06:27:48;;;;;;;;;;;8.70;99.90;;;;;;5220700;28;19913;-74
2022/04/16 06:30:19;;;;;;;;;;;8.80;99.90;;;;;;5231053;28;20225;-72
2022/04/16 06:32:55;;;;;;;;;;;8.90;99.90;;;;;;5212543;28;20000;-74
2022/04/16 06:35:29;;;;;;;;;;;8.90;99.90;;;;;;5236122;28;19905;-73
2022/04/16 06:38:05;;;;;;;;;;;9.00;99.90;;;;;;5241382;28;19904;-75
2022/04/16 06:40:38;;;;;;;;;;;9.10;99.90;;;;;;5206185;28;20357;-74
2022/04/16 06:43:11;;;;;;;;;;;9.10;99.90;;;;;;5229036;28;19912;-72
2022/04/16 06:45:42;;;;;;;;;;;9.20;99.90;;;;;;5235741;28;19921;-73
2022/04/16 06:48:21;;;;;;;;;;;9.30;99.90;;;;;;5220495;28;19908;-74
2022/04/16 06:50:55;;;;;;;;;;;9.30;99.90;;;;;;5218597;28;19905;-73
2022/04/16 06:53:32;;;;;;;;;;;9.20;99.90;;;;;;5218979;28;19919;-74
2022/04/16 06:56:03;;;;;;;;;;;9.20;99.90;;;;;;5220113;28;19897;-73
2022/04/16 06:58:35;;;;;;;;;;;9.20;99.90;;;;;;5219345;28;19912;-74
2022/04/16 07:01:08;;;;;;;;;;;9.10;99.90;;;;;;5222546;28;20039;-74
2022/04/16 07:03:40;;;;;;;;;;;9.10;99.90;;;;;;5223718;28;20240;-74
2022/04/16 07:06:12;;;;;;;;;;;9.10;99.90;;;;;;5228479;28;20130;-73
2022/04/16 07:08:46;;;;;;;;;;;9.20;99.90;;;;;;5224150;28;19911;-72
2022/04/16 07:11:17;;;;;;;;;;;9.00;99.90;;;;;;5223868;28;20241;-75
2022/04/16 07:13:53;;;;;;;;;;;8.90;99.90;;;;;;5223669;28;19938;-73
2022/04/16 07:16:27;;;;;;;;;;;8.90;99.90;;;;;;5225124;28;20011;-74
2022/04/16 07:19:01;;;;;;;;;;;8.90;99.90;;;;;;5225365;28;19913;-74
2022/04/16 07:21:35;;;;;;;;;;;8.80;99.90;;;;;;5206277;28;19976;-73
2022/04/16 07:24:06;;;;;;;;;;;8.80;99.90;;;;;;5185416;28;20104;-73
2022/04/16 07:26:40;;;;;;;;;;;8.90;99.90;;;;;;5251264;28;20209;-74
2022/04/16 07:29:22;;;;;;;;;;;8.80;99.90;;;;;;5240495;28;19919;-74
2022/04/16 07:31:56;;;;;;;;;;;8.90;99.90;;;;;;5223311;28;20079;-73
2022/04/16 07:34:30;;;;;;;;;;;9.00;99.90;;;;;;5205678;28;19951;-74
2022/04/16 07:37:01;;;;;;;;;;;9.00;99.90;;;;;;5222867;28;20170;-75
2022/04/16 07:39:33;;;;;;;;;;;9.10;99.90;;;;;;5223714;28;20232;-74
2022/04/16 07:42:07;;;;;;;;;;;9.10;99.90;;;;;;5223135;28;19911;-73
2022/04/16 07:44:39;;;;;;;;;;;9.00;99.90;;;;;;5222694;28;19908;-74
2022/04/16 07:47:12;;;;;;;;;;;8.90;99.90;;;;;;5221451;28;19905;-74
2022/04/16 07:49:43;;;;;;;;;;;8.90;99.90;;;;;;5222214;28;19911;-73
2022/04/16 07:52:18;;;;;;;;;;;8.90;99.90;;;;;;5206318;28;20122;-74
2022/04/16 07:54:51;;;;;;;;;;;8.90;99.90;;;;;;5224233;28;19919;-74
2022/04/16 07:57:22;;;;;;;;;;;8.90;99.90;;;;;;5229034;28;19913;-73
2022/04/16 07:59:56;;;;;;;;;;;8.80;99.90;;;;;;5223649;28;20267;-73
2022/04/16 08:02:33;;;;;;;;;;;8.80;99.90;;;;;;5224513;28;19904;-73
2022/04/16 08:05:07;;;;;;;;;;;8.80;99.90;;;;;;5219805;28;19985;-74
2022/04/16 08:07:38;;;;;;;;;;;8.70;99.90;;;;;;5224839;28;19915;-74
2022/04/16 08:10:12;;;;;;;;;;;8.70;99.90;;;;;;5217859;28;20202;-73
2022/04/16 08:12:43;;;;;;;;;;;8.80;99.90;;;;;;5205271;28;20091;-75
2022/04/16 08:15:14;;;;;;;;;;;8.60;99.90;;;;;;5222761;28;19923;-75
2022/04/16 08:17:48;;;;;;;;;;;8.70;99.90;;;;;;5223379;28;19915;-75
2022/04/16 08:20:21;;;;;;;;;;;8.70;99.90;;;;;;5221845;28;19995;-75
2022/04/16 08:22:57;;;;;;;;;;;8.70;99.90;;;;;;5222528;28;19897;-73
2022/04/16 08:28:02;;;;;;;;;;;8.60;99.90;;;;;;5244211;28;19911;-74
2022/04/16 08:30:36;;;;;;;;;;;8.60;99.90;;;;;;5243020;28;20004;-74
2022/04/16 08:33:13;;;;;;;;;;;8.70;99.90;;;;;;5238537;28;19912;-74
2022/04/16 08:35:50;;;;;;;;;;;8.60;99.90;;;;;;5226146;28;19912;-75
2022/04/16 08:38:24;;;;;;;;;;;8.70;99.90;;;;;;5229176;28;19911;-74
2022/04/16 08:40:59;;;;;;;;;;;8.60;99.90;;;;;;5222333;28;19912;-75
2022/04/16 08:43:31;;;;;;;;;;;8.50;99.90;;;;;;5188794;28;19917;-74
2022/04/16 08:46:04;;;;;;;;;;;8.50;99.90;;;;;;5208269;28;20134;-73
2022/04/16 08:48:42;;;;;;;;;;;8.50;99.90;;;;;;5236841;28;19923;-74
2022/04/16 08:51:15;;;;;;;;;;;8.40;99.90;;;;;;5225668;28;19930;-74
2022/04/16 08:53:47;;;;;;;;;;;8.50;99.90;;;;;;5223525;28;19911;-73
2022/04/16 08:56:18;;;;;;;;;;;8.50;99.90;;;;;;5232242;28;20190;-74
2022/04/16 08:58:54;;;;;;;;;;;8.40;99.90;;;;;;5243046;28;19908;-74
2022/04/16 09:01:29;;;;;;;;;;;8.40;99.90;;;;;;5224997;28;20332;-74
2022/04/16 09:04:05;;;;;;;;;;;8.50;99.90;;;;;;5222159;28;19907;-75
2022/04/16 09:06:41;;;;;;;;;;;8.50;99.90;;;;;;5211004;28;19920;-73
2022/04/16 09:09:12;;;;;;;;;;;8.50;99.90;;;;;;5204762;28;20202;-75
2022/04/16 09:11:48;;;;;;;;;;;8.50;99.90;;;;;;5237487;28;19908;-74
2022/04/16 09:14:33;;;;;;;;;;;8.50;99.90;;;;;;5221696;28;19904;-75
2022/04/16 09:17:10;;;;;;;;;;;8.50;99.90;;;;;;5219701;28;19917;-74
2022/04/16 09:19:42;;;;;;;;;;;8.40;99.90;;;;;;5237213;28;19905;-75
2022/04/16 09:22:31;;;;;;;;;;;8.40;99.90;;;;;;5188724;28;19927;-75
2022/04/16 09:25:13;;;;;;;;;;;8.40;99.90;;;;;;5203870;28;19927;-73
2022/04/16 09:27:55;;;;;;;;;;;8.40;99.90;;;;;;5222502;28;19939;-73
2022/04/16 09:30:31;;;;;;;;;;;8.40;99.90;;;;;;5222020;28;20102;-74
2022/04/16 09:33:03;;;;;;;;;;;8.50;99.90;;;;;;5221852;28;19904;-74
2022/04/16 09:35:39;;;;;;;;;;;8.50;99.90;;;;;;5221676;28;20079;-74
2022/04/16 09:38:14;;;;;;;;;;;8.50;99.90;;;;;;5204322;28;19919;-74
2022/04/16 09:40:46;;;;;;;;;;;8.50;99.90;;;;;;5221362;28;20137;-73
2022/04/16 09:43:18;;;;;;;;;;;8.40;99.90;;;;;;5204841;28;19905;-74
2022/04/16 09:45:54;;;;;;;;;;;8.30;99.90;;;;;;5186431;28;19927;-74
2022/04/16 09:48:25;;;;;;;;;;;8.30;99.90;;;;;;5237194;28;19919;-74
2022/04/16 09:50:58;;;;;;;;;;;8.30;99.90;;;;;;5203856;28;19905;-74
2022/04/16 09:53:39;;;;;;;;;;;8.30;99.90;;;;;;5203841;28;19905;-73
2022/04/16 09:56:11;;;;;;;;;;;8.20;99.90;;;;;;5192205;28;19913;-74
2022/04/16 09:58:44;;;;;;;;;;;8.20;99.90;;;;;;5220193;28;20221;-74
2022/04/16 10:01:16;;;;;;;;;;;8.20;99.90;;;;;;5236488;28;19904;-73
2022/04/16 10:03:49;;;;;;;;;;;8.30;99.90;;;;;;5203654;28;19909;-75
2022/04/16 10:06:23;;;;;;;;;;;8.30;99.90;;;;;;5210103;28;19920;-75
2022/04/16 10:08:58;;;;;;;;;;;8.50;99.90;;;;;;5211675;28;20383;-75
2022/04/16 10:12:59;;;;;;;;;;;8.70;99.90;;;;;;5223950;28;19904;-75
2022/04/16 10:14:36;;;;;;;;;;;8.70;99.90;;;;;;5207227;28;20331;-74
2022/04/16 10:17:27;;;;;;;;;;;8.60;99.90;;;;;;5220715;28;19908;-75
2022/04/16 10:20:09;;;;;;;;;;;8.70;99.90;;;;;;5221105;28;19912;-74
2022/04/16 10:22:54;;;;;;;;;;;8.80;99.90;;;;;;5220239;28;20207;-74
2022/04/16 10:25:41;;;;;;;;;;;9.10;99.90;;;;;;5167929;28;19926;-74
2022/04/16 10:28:23;;;;;;;;;;;9.30;99.90;;;;;;5257437;28;19918;-73
2022/04/16 10:30:55;;;;;;;;;;;9.70;99.90;;;;;;5233898;28;19911;-74
2022/04/16 10:33:34;;;;;;;;;;;9.60;99.90;;;;;;5211808;28;19911;-73
2022/04/16 10:36:10;;;;;;;;;;;9.90;99.90;;;;;;5216960;28;20158;-74
2022/04/16 10:38:43;;;;;;;;;;;10.00;99.90;;;;;;5222665;28;19912;-75
2022/04/16 10:41:21;;;;;;;;;;;9.70;99.90;;;;;;5226671;28;19935;-74
2022/04/16 10:43:57;;;;;;;;;;;9.80;99.90;;;;;;5204776;28;20089;-74
2022/04/16 10:46:48;;;;;;;;;;;10.10;99.90;;;;;;5224284;28;20718;-74
2022/04/16 10:49:23;;;;;;;;;;;10.60;99.90;;;;;;5233232;28;19904;-74
2022/04/16 10:52:01;;;;;;;;;;;10.40;99.90;;;;;;5232441;28;19911;-75
2022/04/16 10:54:37;;;;;;;;;;;10.20;99.90;;;;;;5189835;28;20203;-74
2022/04/16 10:57:10;;;;;;;;;;;10.20;99.90;;;;;;5256022;28;20141;-74
2022/04/16 10:59:45;;;;;;;;;;;10.00;99.90;;;;;;5241549;28;20125;-74
2022/04/16 11:02:31;;;;;;;;;;;9.90;99.90;;;;;;5220661;28;19908;-74
2022/04/16 11:05:08;;;;;;;;;;;9.70;99.90;;;;;;5190458;28;20472;-74
2022/04/16 11:07:45;;;;;;;;;;;9.40;99.90;;;;;;5196367;28;20217;-74
2022/04/16 11:10:23;;;;;;;;;;;9.20;99.90;;;;;;5235326;28;19948;-77
2022/04/16 11:12:54;;;;;;;;;;;9.40;99.90;;;;;;5219124;28;19908;-75
2022/04/16 11:15:28;;;;;;;;;;;9.30;99.90;;;;;;5223602;28;19916;-75
2022/04/16 11:18:01;;;;;;;;;;;9.20;99.90;;;;;;5207562;28;19913;-74
2022/04/16 11:20:32;;;;;;;;;;;9.00;99.90;;;;;;5206609;28;20126;-73
2022/04/16 11:23:11;;;;;;;;;;;9.00;99.90;;;;;;5225520;28;19908;-73
2022/04/16 11:34:25;;;;;;;;;;;9.00;99.90;;;;;;5211280;28;20222;-74
2022/04/16 11:36:58;;;;;;;;;;;8.90;99.90;;;;;;5231897;28;19916;-73
2022/04/16 11:39:39;;;;;;;;;;;8.90;99.90;;;;;;5236975;28;19919;-75
2022/04/16 11:42:13;;;;;;;;;;;8.80;99.90;;;;;;5220254;28;19923;-76
2022/04/16 11:44:50;;;;;;;;;;;8.60;99.90;;;;;;5237442;28;20252;-74
2022/04/16 11:47:30;;;;;;;;;;;8.40;99.90;;;;;;5221675;28;19983;-74
2022/04/16 11:50:06;;;;;;;;;;;8.30;99.90;;;;;;5212619;28;19909;-75
2022/04/16 11:52:40;;;;;;;;;;;8.40;99.90;;;;;;5204834;28;20091;-74
2022/04/16 11:55:21;;;;;;;;;;;8.30;99.90;;;;;;5205324;28;19916;-73
2022/04/16 11:57:53;;;;;;;;;;;8.30;99.90;;;;;;5225614;28;19909;-76
2022/04/16 12:00:26;;;;;;;;;;;8.30;99.90;;;;;;5221023;28;20114;-74
2022/04/16 12:02:57;;;;;;;;;;;8.30;99.90;;;;;;5204887;28;20203;-74
2022/04/16 12:05:33;;;;;;;;;;;8.40;99.90;;;;;;5210649;28;19924;-73
2022/04/16 12:08:10;;;;;;;;;;;8.30;99.90;;;;;;5201604;28;20200;-74
2022/04/16 12:10:50;;;;;;;;;;;8.30;99.90;;;;;;5219853;28;19908;-73
2022/04/16 12:13:24;;;;;;;;;;;8.40;99.90;;;;;;5224834;28;19932;-74
2022/04/16 12:16:05;;;;;;;;;;;8.30;99.90;;;;;;5225053;28;19923;-76
2022/04/16 12:18:49;;;;;;;;;;;8.30;99.90;;;;;;5241984;28;20214;-74
2022/04/16 12:21:21;;;;;;;;;;;8.20;99.90;;;;;;5225881;28;20070;-75
2022/04/16 12:24:05;;;;;;;;;;;8.40;99.90;;;;;;5208497;28;19909;-74
2022/04/16 12:26:50;;;;;;;;;;;8.40;99.90;;;;;;5221726;28;19924;-75
2022/04/16 12:29:30;;;;;;;;;;;8.40;99.90;;;;;;5227485;28;19947;-75
2022/04/16 12:32:04;;;;;;;;;;;8.50;99.90;;;;;;5206600;28;19915;-75
2022/04/16 12:34:37;;;;;;;;;;;8.50;99.90;;;;;;5194803;28;19915;-75
2022/04/16 12:37:08;;;;;;;;;;;8.40;99.90;;;;;;5223832;28;19923;-76
2022/04/16 12:39:39;;;;;;;;;;;8.40;99.90;;;;;;5225077;28;20197;-74
2022/04/16 12:42:10;;;;;;;;;;;8.40;99.90;;;;;;5225779;28;20819;-73
2022/04/16 12:44:41;;;;;;;;;;;8.40;99.90;;;;;;5226840;28;20410;-76
2022/04/16 12:47:15;;;;;;;;;;;8.60;99.90;;;;;;5233893;28;19909;-75
2022/04/16 12:49:46;;;;;;;;;;;8.60;99.90;;;;;;5226392;28;19909;-74
2022/04/16 12:52:17;;;;;;;;;;;8.80;99.90;;;;;;5228387;28;19915;-75
2022/04/16 12:54:49;;;;;;;;;;;8.80;99.90;;;;;;5208913;28;19908;-75
2022/04/16 12:57:20;;;;;;;;;;;8.90;99.90;;;;;;5212376;28;19909;-76
2022/04/16 12:59:51;;;;;;;;;;;9.80;99.90;;;;;;5228248;28;19922;-75
2022/04/16 13:02:27;;;;;;;;;;;10.30;99.90;;;;;;5238632;28;19908;-74
2022/04/16 13:04:58;;;;;;;;;;;10.60;99.90;;;;;;5215940;28;19909;-76
2022/04/16 13:07:32;;;;;;;;;;;10.20;99.90;;;;;;5224097;28;19913;-75
2022/04/16 13:10:04;;;;;;;;;;;10.10;99.90;;;;;;5206934;28;19909;-75
2022/04/16 13:12:40;;;;;;;;;;;9.60;99.90;;;;;;5191503;28;20738;-76
2022/04/16 13:15:12;;;;;;;;;;;9.90;99.90;;;;;;5225852;28;19922;-76
2022/04/16 13:17:46;;;;;;;;;;;9.60;99.90;;;;;;5227831;28;19916;-75
2022/04/16 13:20:17;;;;;;;;;;;9.50;99.90;;;;;;5224398;28;19911;-77
2022/04/16 13:22:50;;;;;;;;;;;9.20;99.90;;;;;;5225963;28;19931;-75
2022/04/16 13:25:22;;;;;;;;;;;9.00;99.90;;;;;;5243218;28;19916;-74
2022/04/16 13:27:53;;;;;;;;;;;9.10;99.90;;;;;;5212276;28;19917;-77
2022/04/16 13:30:24;;;;;;;;;;;9.20;99.90;;;;;;5230669;28;20377;-75
2022/04/16 13:32:55;;;;;;;;;;;9.30;99.90;;;;;;5226906;28;20157;-75
2022/04/16 13:35:27;;;;;;;;;;;9.30;99.90;;;;;;5207538;28;20206;-75
2022/04/16 13:38:01;;;;;;;;;;;9.10;99.90;;;;;;5225507;28;19917;-74
2022/04/16 13:43:27;;;;;;;;;;;8.90;99.90;;;;;;5213274;28;19915;-76
2022/04/16 13:45:59;;;;;;;;;;;8.80;99.90;;;;;;5212598;28;19927;-76
2022/04/16 13:48:30;;;;;;;;;;;8.80;99.90;;;;;;5233751;28;19926;-79
2022/04/16 13:51:02;;;;;;;;;;;9.10;99.90;;;;;;5216062;28;20117;-78
2022/04/16 13:53:33;;;;;;;;;;;9.00;99.90;;;;;;5216319;28;20335;-78
2022/04/16 13:56:17;;;;;;;;;;;8.90;99.90;;;;;;5252508;28;19909;-76
2022/04/16 13:58:50;;;;;;;;;;;8.90;99.90;;;;;;5239007;28;19917;-76
2022/04/16 14:01:23;;;;;;;;;;;9.10;99.90;;;;;;5231689;28;19915;-76
2022/04/16 14:03:56;;;;;;;;;;;9.20;99.90;;;;;;5231762;28;19901;-78
2022/04/16 14:06:32;;;;;;;;;;;9.40;99.90;;;;;;5236260;28;19921;-77
2022/04/16 14:09:06;;;;;;;;;;;9.30;99.90;;;;;;5220197;28;19917;-76
2022/04/16 14:11:39;;;;;;;;;;;9.10;99.90;;;;;;5238482;28;19908;-77
2022/04/16 14:14:13;;;;;;;;;;;8.90;99.90;;;;;;5220409;28;19924;-76
2022/04/16 14:16:45;;;;;;;;;;;8.90;99.90;;;;;;5229244;28;20210;-78
2022/04/16 14:19:16;;;;;;;;;;;9.00;99.90;;;;;;5233125;28;19915;-77
2022/04/16 14:21:53;;;;;;;;;;;9.20;99.90;;;;;;5199246;28;20207;-77
2022/04/16 14:24:24;;;;;;;;;;;9.50;99.90;;;;;;5214498;28;19916;-76
2022/04/16 14:26:58;;;;;;;;;;;10.00;99.90;;;;;;5233876;28;19924;-75
2022/04/16 14:29:32;;;;;;;;;;;9.70;99.90;;;;;;5218893;28;19905;-76
2022/04/16 14:32:04;;;;;;;;;;;9.40;99.90;;;;;;5226703;28;19920;-77
2022/04/16 14:34:35;;;;;;;;;;;9.10;99.90;;;;;;5211753;28;19917;-78
2022/04/16 14:37:09;;;;;;;;;;;9.00;99.90;;;;;;5229746;28;19904;-76
2022/04/16 14:39:40;;;;;;;;;;;9.10;99.90;;;;;;5185568;28;19908;-77
2022/04/16 14:42:12;;;;;;;;;;;8.90;99.90;;;;;;5231372;28;19909;-76
2022/04/16 14:44:51;;;;;;;;;;;8.90;99.90;;;;;;5195871;28;19915;-76
2022/04/16 14:47:22;;;;;;;;;;;8.80;99.90;;;;;;5207777;28;19952;-77
2022/04/16 14:52:15;;;;;;;0.88;0.88;;;8.80;99.90;;;;;;5306801;27;20450;-79
2022/04/16 14:54:47;;;;;;;0.60;0.60;;;8.70;99.90;;;;;;5295466;27;20031;-77
2022/04/16 14:57:18;;;;;;;0.70;0.70;;;8.50;99.90;;;;;;5302555;27;20023;-77
2022/04/16 14:59:49;;;;;;;0.80;0.80;;;8.50;99.90;;;;;;5310378;27;20035;-78
2022/04/16 15:02:22;;;;;;;0.98;0.98;;;8.60;99.90;;;;;;5298161;27;20050;-78
2022/04/16 15:04:53;;;;;;;0.70;0.70;;;8.70;99.90;;;;;;5280180;27;20058;-80
2022/04/16 15:07:26;;;;;;;0.50;0.50;;;8.80;99.90;;;;;;5244388;28;20037;-78
2022/04/16 15:10:03;;;;;;;0.80;0.80;;;9.10;99.90;;;;;;5246388;28;20340;-76
2022/04/16 15:12:34;;;;;;;0.80;0.80;;;9.60;99.90;;;;;;5238170;28;20037;-78
2022/04/16 15:15:06;;;;;;;0.85;0.85;;;10.30;99.90;;;;;;5239279;28;20313;-78
2022/04/16 15:17:39;;;;;;;0.68;0.68;;;10.30;99.90;;;;;;5244144;28;20326;-77
2022/04/16 15:20:19;;;;;;;0.70;0.70;;;10.20;99.90;;;;;;5243098;28;20038;-78
2022/04/16 15:22:56;;;;;;;0.60;0.60;;;10.10;99.90;;;;;;5238440;28;20048;-79
2022/04/16 15:25:30;;;;;;;0.75;0.75;;;10.00;99.90;;;;;;5237209;28;20040;-79
2022/04/16 15:28:02;;;;;;;0.57;0.57;;;9.70;99.90;;;;;;5238541;28;20326;-78
2022/04/16 15:30:33;;;;;;;0.70;0.70;;;9.20;99.90;;;;;;5222232;28;20035;-80
2022/04/16 15:33:05;;;;;;;0.65;0.65;;;8.90;99.90;;;;;;5239431;28;20342;-78
2022/04/16 15:35:36;;;;;;;0.77;0.77;;;8.80;99.90;;;;;;5239049;28;20025;-78
2022/04/16 15:38:07;;;;;;;0.60;0.60;;;8.50;99.90;;;;;;5228994;28;20346;-78